MTS Valour — MPVV8 — position and weather

sailwx.info

Track history (hours):
 
Tides and Currents Weather Stations Pressure Air Temp Water Temp Dewpoint Dewpoint Depression Visibility Wind Speed Wind Dir Waves Ship Positions

MTS Valour

Last reported at 2016-Jul-29 01:30 UTC. Time now 2016-Jul-29 02:05 UTC.
Position N 51°26' E 000°41'.

Length 24 m; draft 2.4 m.

Type: Tug. MMSI: 235040596.

Date/timePositionNaut miles runAvg speedWind from/ knotsBaromVisibWave heightAir tempDewpointWater temp
2016-Jul-29 01:30N 51°26' E 000°41'0 0.0
2016-Jul-29 00:30N 51°26' E 000°41'0 0.0
2016-Jul-28 23:33N 51°26' E 000°41'0 0.0
2016-Jul-28 22:30N 51°26' E 000°41'0 0.0
2016-Jul-28 21:33N 51°26' E 000°41'0 0.0
2016-Jul-28 20:33N 51°26' E 000°41'0 0.0
2016-Jul-28 19:33N 51°26' E 000°41'0 0.0
2016-Jul-28 18:33N 51°26' E 000°41'0 0.0
2016-Jul-28 17:21N 51°26' E 000°41'0 0.1
2016-Jul-28 16:31N 51°26' E 000°41'0 0.0
2016-Jul-28 15:31N 51°26' E 000°41'0 0.0
2016-Jul-28 14:31N 51°26' E 000°41'0 0.0
2016-Jul-28 13:31N 51°26' E 000°41'0 0.0
2016-Jul-28 12:31N 51°26' E 000°41'0 0.0
2016-Jul-28 11:28N 51°26' E 000°41'0 0.0
2016-Jul-28 10:31N 51°26' E 000°41'0 0.0
2016-Jul-28 09:22N 51°26' E 000°41'0 0.0
2016-Jul-28 08:31N 51°26' E 000°41'0 0.0
2016-Jul-28 07:28N 51°26' E 000°41'0 0.0
2016-Jul-28 06:31N 51°26' E 000°41'0 0.0
2016-Jul-28 05:28N 51°26' E 000°41'0 0.0
2016-Jul-28 04:28N 51°26' E 000°41'0 0.0
2016-Jul-28 03:28N 51°26' E 000°41'0 0.0
2016-Jul-28 02:31N 51°26' E 000°41'0 0.0
2016-Jul-28 01:25N 51°26' E 000°41'0 0.0
2016-Jul-28 00:31N 51°26' E 000°41'0 0.0
2016-Jul-27 23:31N 51°26' E 000°41'0 0.0
2016-Jul-27 22:31N 51°26' E 000°41'0 0.0
2016-Jul-27 21:31N 51°26' E 000°41'0 0.0
2016-Jul-27 20:31N 51°26' E 000°41'0 0.0
2016-Jul-27 19:31N 51°26' E 000°41'0 0.0
2016-Jul-27 18:28N 51°26' E 000°41'0 0.0
2016-Jul-27 17:31N 51°26' E 000°41'0 0.0
2016-Jul-27 16:31N 51°26' E 000°41'0 0.0
2016-Jul-27 15:31N 51°26' E 000°41'0 0.0
2016-Jul-27 14:31N 51°26' E 000°41'0 0.0
2016-Jul-27 13:31N 51°26' E 000°41'0 0.0
2016-Jul-27 12:31N 51°26' E 000°41'0 0.0
2016-Jul-27 11:31N 51°26' E 000°41'0 0.0
2016-Jul-27 10:28N 51°26' E 000°41'0 0.0
2016-Jul-27 09:28N 51°26' E 000°41'0 0.0
2016-Jul-27 08:30N 51°26' E 000°41'2 2.1
2016-Jul-27 07:33N 51°27' E 000°44'4 4.2
2016-Jul-27 06:33N 51°28' E 000°50'6 5.8
2016-Jul-27 05:33N 51°29' E 000°59'7 6.9
2016-Jul-27 04:31N 51°29' E 001°11'7 7.7
2016-Jul-27 03:33N 51°28' E 001°23'6 5.9
2016-Jul-27 02:33N 51°26' E 001°32'2 1.8
2016-Jul-27 01:33N 51°25' E 001°34'1 1.3
2016-Jul-27 00:33N 51°24' E 001°36'1 1.4
2016-Jul-26 23:33N 51°23' E 001°37'2 1.6
2016-Jul-26 22:33N 51°23' E 001°39'4 3.5
2016-Jul-26 21:33N 51°25' E 001°35'3 3.4
2016-Jul-26 20:33N 51°27' E 001°31'2 2.0
2016-Jul-26 19:33N 51°29' E 001°34'2 1.6
2016-Jul-26 18:33N 51°30' E 001°35'2 2.1
2016-Jul-26 17:33N 51°31' E 001°38'3 3.5
2016-Jul-26 16:33N 51°32' E 001°43'5 4.8
2016-Jul-26 15:33N 51°34' E 001°50'5 5.3
2016-Jul-26 14:33N 51°37' E 001°58'6 6.0
2016-Jul-26 13:33N 51°40' E 002°06'13 6.3
2016-Jul-26 11:25N 51°48' E 002°24'6 5.2
2016-Jul-26 10:20N 51°51' E 002°31'25 3.5
2016-Jul-26 03:11N 52°02' E 003°07'19 4.9
2016-Jul-25 23:21N 52°03' E 003°38'4 4.9
2016-Jul-25 22:32N 52°03' E 003°44'6 5.6
2016-Jul-25 21:33N 52°03' E 003°53'6 5.7
2016-Jul-25 20:33N 52°00' E 004°02'7 7.1
2016-Jul-25 19:33N 51°57' E 004°12'6 5.8
2016-Jul-25 18:33N 51°53' E 004°19'5 4.8
2016-Jul-25 17:33N 51°50' E 004°25'6 6.1
2016-Jul-25 16:33N 51°48' E 004°35'2 2.5
2016-Jul-25 15:34N 51°48' E 004°39'0 0.0
2016-Jul-25 14:34N 51°48' E 004°39'0 0.0
2016-Jul-25 13:33N 51°48' E 004°39'0 0.0
2016-Jul-25 12:34N 51°48' E 004°39'0 0.0
2016-Jul-25 11:34N 51°48' E 004°39'0 0.0
2016-Jul-25 10:34N 51°48' E 004°39'0 0.0
2016-Jul-25 09:34N 51°48' E 004°39'0 0.0
2016-Jul-25 08:33N 51°48' E 004°39'0 0.0
2016-Jul-25 07:34N 51°48' E 004°39'0 0.0
2016-Jul-25 06:33N 51°48' E 004°39'0 0.0
2016-Jul-25 05:34N 51°48' E 004°39'0 0.0
2016-Jul-25 04:34N 51°48' E 004°39'0 0.0
2016-Jul-25 03:34N 51°48' E 004°39'0 0.0
2016-Jul-25 02:34N 51°48' E 004°39'0 0.0
2016-Jul-25 01:34N 51°48' E 004°39'0 0.0
2016-Jul-25 00:33N 51°48' E 004°39'0 0.0
2016-Jul-24 23:34N 51°48' E 004°39'0 0.0
2016-Jul-24 22:34N 51°48' E 004°39'0 0.0
2016-Jul-24 21:34N 51°48' E 004°39'0 0.0
2016-Jul-24 20:34N 51°48' E 004°39'0 0.0
2016-Jul-24 19:33N 51°48' E 004°39'0 0.0
2016-Jul-24 18:34N 51°48' E 004°39'0 0.0
2016-Jul-24 17:34N 51°48' E 004°39'0 0.0
2016-Jul-24 16:34N 51°48' E 004°39'0 0.0
2016-Jul-24 15:34N 51°48' E 004°39'0 0.3
2016-Jul-24 14:33N 51°48' E 004°39'3 3.5
2016-Jul-24 13:33N 51°50' E 004°33'4 4.2
2016-Jul-24 12:33N 51°50' E 004°27'4 4.1
2016-Jul-24 11:33N 51°52' E 004°20'4 4.1
2016-Jul-24 10:33N 51°54' E 004°16'4 3.5
2016-Jul-24 09:33N 51°57' E 004°11'3 3.2
2016-Jul-24 08:33N 51°59' E 004°07'4 4.2
2016-Jul-24 07:33N 51°60' E 004°01'6 6.4
2016-Jul-24 06:33N 52°00' E 003°50'5 5.4
2016-Jul-24 05:33N 51°58' E 003°42'7 5.8
2016-Jul-24 04:20N 51°57' E 003°31'5 5.1
2016-Jul-24 03:25N 51°56' E 003°23'4 4.7
2016-Jul-24 02:32N 51°55' E 003°17'5 4.5
2016-Jul-24 01:26N 51°53' E 003°09'4 3.8
2016-Jul-24 00:27N 51°52' E 003°03'2 2.7
2016-Jul-23 23:33N 51°51' E 002°60'2 1.8
2016-Jul-23 22:30N 51°51' E 002°57'2 1.9
2016-Jul-23 21:33N 51°50' E 002°54'4 3.6
2016-Jul-23 20:33N 51°49' E 002°49'4 4.4
2016-Jul-23 19:33N 51°48' E 002°42'5 4.9
2016-Jul-23 18:34N 51°45' E 002°35'6 5.7
2016-Jul-23 17:33N 51°41' E 002°29'6 6.2
2016-Jul-23 16:33N 51°36' E 002°23'7 6.6
2016-Jul-23 15:33N 51°31' E 002°16'7 6.6
2016-Jul-23 14:33N 51°26' E 002°09'6 6.2
2016-Jul-23 13:33N 51°22' E 002°02'6 5.5
2016-Jul-23 12:33N 51°18' E 001°56'4 3.7
2016-Jul-23 11:33N 51°15' E 001°52'2 2.4
2016-Jul-23 10:33N 51°13' E 001°49'2 1.8
2016-Jul-23 09:33N 51°12' E 001°47'1 1.4
2016-Jul-23 08:33N 51°11' E 001°46'2 2.1
2016-Jul-23 07:33N 51°09' E 001°44'3 3.3
2016-Jul-23 06:33N 51°07' E 001°40'8 4.2
2016-Jul-23 04:33N 51°00' E 001°32'6 5.7
2016-Jul-23 03:33N 50°55' E 001°27'6 6.3
2016-Jul-23 02:33N 50°49' E 001°24'6 6.5
2016-Jul-23 01:33N 50°43' E 001°21'71 1.4
2016-Jul-21 00:31N 49°46' E 000°14'3 2.2
2016-Jul-20 23:24N 49°48' E 000°18'1 0.4
2016-Jul-20 21:27N 49°48' E 000°19'4 0.9
2016-Jul-20 17:33N 49°47' E 000°13'2 2.1
2016-Jul-20 16:33N 49°48' E 000°11'2 2.0
2016-Jul-20 15:34N 49°50' E 000°09'4 3.7
2016-Jul-20 14:34N 49°53' E 000°05'4 4.3
2016-Jul-20 13:33N 49°56' E 000°00'4 4.1
2016-Jul-20 12:32N 49°58' W 000°05'5 4.5
2016-Jul-20 11:31N 50°01' W 000°11'5 5.6
2016-Jul-20 10:33N 50°03' W 000°18'7 6.5
2016-Jul-20 09:29N 50°05' W 000°29'42 4.6
2016-Jul-20 00:21N 50°23' W 001°29'2 2.8
2016-Jul-19 23:34N 50°24' W 001°31'10 4.9
2016-Jul-19 21:34N 50°29' W 001°46'7 6.5
2016-Jul-19 20:33N 50°30' W 001°56'7 7.4
2016-Jul-19 19:33N 50°32' W 002°07'6 6.4
2016-Jul-19 18:33N 50°34' W 002°16'5 5.2
2016-Jul-19 17:33N 50°36' W 002°24'2 0.3
2016-Jul-19 11:19N 50°34' W 002°26'0 0.0
2016-Jul-19 10:31N 50°34' W 002°26'2 0.5
2016-Jul-19 07:23N 50°35' W 002°24'7 8.3
2016-Jul-19 06:34N 50°34' W 002°14'24 8.0
2016-Jul-19 03:31N 50°33' W 001°35'1010.4
2016-Jul-19 02:33N 50°32' W 001°20'1211.6
2016-Jul-19 01:34N 50°32' W 001°02'  
Track history (hours):
 
Tides and Currents Weather Stations Pressure Air Temp Water Temp Dewpoint Dewpoint Depression Visibility Wind Speed Wind Dir Waves Ship Positions

MTS Valour

Last reported at 2016-Jul-29 01:30 UTC. Time now 2016-Jul-29 02:05 UTC.
Position N 51°26' E 000°41'.

Length 24 m; draft 2.4 m.

Type: Tug. MMSI: 235040596.

Date/timePositionNaut miles runAvg speedWind from/ knotsBaromVisibWave heightAir tempDewpointWater temp
2016-Jul-29 01:30N 51°26' E 000°41'0 0.0
2016-Jul-29 00:30N 51°26' E 000°41'0 0.0
2016-Jul-28 23:33N 51°26' E 000°41'0 0.0
2016-Jul-28 22:30N 51°26' E 000°41'0 0.0
2016-Jul-28 21:33N 51°26' E 000°41'0 0.0
2016-Jul-28 20:33N 51°26' E 000°41'0 0.0
2016-Jul-28 19:33N 51°26' E 000°41'0 0.0
2016-Jul-28 18:33N 51°26' E 000°41'0 0.0
2016-Jul-28 17:21N 51°26' E 000°41'0 0.1
2016-Jul-28 16:31N 51°26' E 000°41'0 0.0
2016-Jul-28 15:31N 51°26' E 000°41'0 0.0
2016-Jul-28 14:31N 51°26' E 000°41'0 0.0
2016-Jul-28 13:31N 51°26' E 000°41'0 0.0
2016-Jul-28 12:31N 51°26' E 000°41'0 0.0
2016-Jul-28 11:28N 51°26' E 000°41'0 0.0
2016-Jul-28 10:31N 51°26' E 000°41'0 0.0
2016-Jul-28 09:22N 51°26' E 000°41'0 0.0
2016-Jul-28 08:31N 51°26' E 000°41'0 0.0
2016-Jul-28 07:28N 51°26' E 000°41'0 0.0
2016-Jul-28 06:31N 51°26' E 000°41'0 0.0
2016-Jul-28 05:28N 51°26' E 000°41'0 0.0
2016-Jul-28 04:28N 51°26' E 000°41'0 0.0
2016-Jul-28 03:28N 51°26' E 000°41'0 0.0
2016-Jul-28 02:31N 51°26' E 000°41'0 0.0
2016-Jul-28 01:25N 51°26' E 000°41'0 0.0
2016-Jul-28 00:31N 51°26' E 000°41'0 0.0
2016-Jul-27 23:31N 51°26' E 000°41'0 0.0
2016-Jul-27 22:31N 51°26' E 000°41'0 0.0
2016-Jul-27 21:31N 51°26' E 000°41'0 0.0
2016-Jul-27 20:31N 51°26' E 000°41'0 0.0
2016-Jul-27 19:31N 51°26' E 000°41'0 0.0
2016-Jul-27 18:28N 51°26' E 000°41'0 0.0
2016-Jul-27 17:31N 51°26' E 000°41'0 0.0
2016-Jul-27 16:31N 51°26' E 000°41'0 0.0
2016-Jul-27 15:31N 51°26' E 000°41'0 0.0
2016-Jul-27 14:31N 51°26' E 000°41'0 0.0
2016-Jul-27 13:31N 51°26' E 000°41'0 0.0
2016-Jul-27 12:31N 51°26' E 000°41'0 0.0
2016-Jul-27 11:31N 51°26' E 000°41'0 0.0
2016-Jul-27 10:28N 51°26' E 000°41'0 0.0
2016-Jul-27 09:28N 51°26' E 000°41'0 0.0
2016-Jul-27 08:30N 51°26' E 000°41'2 2.1
2016-Jul-27 07:33N 51°27' E 000°44'4 4.2
2016-Jul-27 06:33N 51°28' E 000°50'6 5.8
2016-Jul-27 05:33N 51°29' E 000°59'7 6.9
2016-Jul-27 04:31N 51°29' E 001°11'7 7.7
2016-Jul-27 03:33N 51°28' E 001°23'6 5.9
2016-Jul-27 02:33N 51°26' E 001°32'2 1.8
2016-Jul-27 01:33N 51°25' E 001°34'1 1.3
2016-Jul-27 00:33N 51°24' E 001°36'1 1.4
2016-Jul-26 23:33N 51°23' E 001°37'2 1.6
2016-Jul-26 22:33N 51°23' E 001°39'4 3.5
2016-Jul-26 21:33N 51°25' E 001°35'3 3.4
2016-Jul-26 20:33N 51°27' E 001°31'2 2.0
2016-Jul-26 19:33N 51°29' E 001°34'2 1.6
2016-Jul-26 18:33N 51°30' E 001°35'2 2.1
2016-Jul-26 17:33N 51°31' E 001°38'3 3.5
2016-Jul-26 16:33N 51°32' E 001°43'5 4.8
2016-Jul-26 15:33N 51°34' E 001°50'5 5.3
2016-Jul-26 14:33N 51°37' E 001°58'6 6.0
2016-Jul-26 13:33N 51°40' E 002°06'13 6.3
2016-Jul-26 11:25N 51°48' E 002°24'6 5.2
2016-Jul-26 10:20N 51°51' E 002°31'25 3.5
2016-Jul-26 03:11N 52°02' E 003°07'19 4.9
2016-Jul-25 23:21N 52°03' E 003°38'4 4.9
2016-Jul-25 22:32N 52°03' E 003°44'6 5.6
2016-Jul-25 21:33N 52°03' E 003°53'6 5.7
2016-Jul-25 20:33N 52°00' E 004°02'7 7.1
2016-Jul-25 19:33N 51°57' E 004°12'6 5.8
2016-Jul-25 18:33N 51°53' E 004°19'5 4.8
2016-Jul-25 17:33N 51°50' E 004°25'6 6.1
2016-Jul-25 16:33N 51°48' E 004°35'2 2.5
2016-Jul-25 15:34N 51°48' E 004°39'0 0.0
2016-Jul-25 14:34N 51°48' E 004°39'0 0.0
2016-Jul-25 13:33N 51°48' E 004°39'0 0.0
2016-Jul-25 12:34N 51°48' E 004°39'0 0.0
2016-Jul-25 11:34N 51°48' E 004°39'0 0.0
2016-Jul-25 10:34N 51°48' E 004°39'0 0.0
2016-Jul-25 09:34N 51°48' E 004°39'0 0.0
2016-Jul-25 08:33N 51°48' E 004°39'0 0.0
2016-Jul-25 07:34N 51°48' E 004°39'0 0.0
2016-Jul-25 06:33N 51°48' E 004°39'0 0.0
2016-Jul-25 05:34N 51°48' E 004°39'0 0.0
2016-Jul-25 04:34N 51°48' E 004°39'0 0.0
2016-Jul-25 03:34N 51°48' E 004°39'0 0.0
2016-Jul-25 02:34N 51°48' E 004°39'0 0.0
2016-Jul-25 01:34N 51°48' E 004°39'0 0.0
2016-Jul-25 00:33N 51°48' E 004°39'0 0.0
2016-Jul-24 23:34N 51°48' E 004°39'0 0.0
2016-Jul-24 22:34N 51°48' E 004°39'0 0.0
2016-Jul-24 21:34N 51°48' E 004°39'0 0.0
2016-Jul-24 20:34N 51°48' E 004°39'0 0.0
2016-Jul-24 19:33N 51°48' E 004°39'0 0.0
2016-Jul-24 18:34N 51°48' E 004°39'0 0.0
2016-Jul-24 17:34N 51°48' E 004°39'0 0.0
2016-Jul-24 16:34N 51°48' E 004°39'0 0.0
2016-Jul-24 15:34N 51°48' E 004°39'0 0.3
2016-Jul-24 14:33N 51°48' E 004°39'3 3.5
2016-Jul-24 13:33N 51°50' E 004°33'4 4.2
2016-Jul-24 12:33N 51°50' E 004°27'4 4.1
2016-Jul-24 11:33N 51°52' E 004°20'4 4.1
2016-Jul-24 10:33N 51°54' E 004°16'4 3.5
2016-Jul-24 09:33N 51°57' E 004°11'3 3.2
2016-Jul-24 08:33N 51°59' E 004°07'4 4.2
2016-Jul-24 07:33N 51°60' E 004°01'6 6.4
2016-Jul-24 06:33N 52°00' E 003°50'5 5.4
2016-Jul-24 05:33N 51°58' E 003°42'7 5.8
2016-Jul-24 04:20N 51°57' E 003°31'5 5.1
2016-Jul-24 03:25N 51°56' E 003°23'4 4.7
2016-Jul-24 02:32N 51°55' E 003°17'5 4.5
2016-Jul-24 01:26N 51°53' E 003°09'4 3.8
2016-Jul-24 00:27N 51°52' E 003°03'2 2.7
2016-Jul-23 23:33N 51°51' E 002°60'2 1.8
2016-Jul-23 22:30N 51°51' E 002°57'2 1.9
2016-Jul-23 21:33N 51°50' E 002°54'4 3.6
2016-Jul-23 20:33N 51°49' E 002°49'4 4.4
2016-Jul-23 19:33N 51°48' E 002°42'5 4.9
2016-Jul-23 18:34N 51°45' E 002°35'6 5.7
2016-Jul-23 17:33N 51°41' E 002°29'6 6.2
2016-Jul-23 16:33N 51°36' E 002°23'7 6.6
2016-Jul-23 15:33N 51°31' E 002°16'7 6.6
2016-Jul-23 14:33N 51°26' E 002°09'6 6.2
2016-Jul-23 13:33N 51°22' E 002°02'6 5.5
2016-Jul-23 12:33N 51°18' E 001°56'4 3.7
2016-Jul-23 11:33N 51°15' E 001°52'2 2.4
2016-Jul-23 10:33N 51°13' E 001°49'2 1.8
2016-Jul-23 09:33N 51°12' E 001°47'1 1.4
2016-Jul-23 08:33N 51°11' E 001°46'2 2.1
2016-Jul-23 07:33N 51°09' E 001°44'3 3.3
2016-Jul-23 06:33N 51°07' E 001°40'8 4.2
2016-Jul-23 04:33N 51°00' E 001°32'6 5.7
2016-Jul-23 03:33N 50°55' E 001°27'6 6.3
2016-Jul-23 02:33N 50°49' E 001°24'6 6.5
2016-Jul-23 01:33N 50°43' E 001°21'71 1.4
2016-Jul-21 00:31N 49°46' E 000°14'3 2.2
2016-Jul-20 23:24N 49°48' E 000°18'1 0.4
2016-Jul-20 21:27N 49°48' E 000°19'4 0.9
2016-Jul-20 17:33N 49°47' E 000°13'2 2.1
2016-Jul-20 16:33N 49°48' E 000°11'2 2.0
2016-Jul-20 15:34N 49°50' E 000°09'4 3.7
2016-Jul-20 14:34N 49°53' E 000°05'4 4.3
2016-Jul-20 13:33N 49°56' E 000°00'4 4.1
2016-Jul-20 12:32N 49°58' W 000°05'5 4.5
2016-Jul-20 11:31N 50°01' W 000°11'5 5.6
2016-Jul-20 10:33N 50°03' W 000°18'7 6.5
2016-Jul-20 09:29N 50°05' W 000°29'42 4.6
2016-Jul-20 00:21N 50°23' W 001°29'2 2.8
2016-Jul-19 23:34N 50°24' W 001°31'10 4.9
2016-Jul-19 21:34N 50°29' W 001°46'7 6.5
2016-Jul-19 20:33N 50°30' W 001°56'7 7.4
2016-Jul-19 19:33N 50°32' W 002°07'6 6.4
2016-Jul-19 18:33N 50°34' W 002°16'5 5.2
2016-Jul-19 17:33N 50°36' W 002°24'2 0.3
2016-Jul-19 11:19N 50°34' W 002°26'0 0.0
2016-Jul-19 10:31N 50°34' W 002°26'2 0.5
2016-Jul-19 07:23N 50°35' W 002°24'7 8.3
2016-Jul-19 06:34N 50°34' W 002°14'24 8.0
2016-Jul-19 03:31N 50°33' W 001°35'1010.4
2016-Jul-19 02:33N 50°32' W 001°20'1211.6
2016-Jul-19 01:34N 50°32' W 001°02'  

Dump ship's entire track history